Time;durP1;ratioP1;P1;durP2;ratioP2;P2;SDS_P1;SDS_P2;PMS_P1;PMS_P2;Temp;Humidity;BMP_temperature;BMP_pressure;BME280_temperature;BME280_humidity;BME280_pressure;Samples;Min_cycle;Max_cycle;Signal;HPM_P1;HPM_P2
2022/07/08 00:01:33;;;;;;;16.10;3.60;;;;;;;15.89;79.08;102509.59;4916739;29;20252;-82
2022/07/08 00:03:59;;;;;;;7.50;2.43;;;;;;;15.84;78.84;102513.78;4916964;29;20221;-82
2022/07/08 00:06:24;;;;;;;15.00;3.63;;;;;;;15.85;78.54;102512.97;4916888;29;20190;-83
2022/07/08 00:08:50;;;;;;;10.93;3.03;;;;;;;15.84;78.26;102510.34;4916290;29;20274;-83
2022/07/08 00:11:15;;;;;;;12.73;2.53;;;;;;;15.83;78.27;102514.63;4932717;29;20242;-84
2022/07/08 00:13:41;;;;;;;12.10;3.33;;;;;;;15.82;77.92;102517.16;4918482;29;20186;-82
2022/07/08 00:16:07;;;;;;;13.50;3.10;;;;;;;15.80;78.77;102524.84;4933719;29;20221;-82
2022/07/08 00:18:32;;;;;;;13.30;2.80;;;;;;;15.78;78.68;102512.75;4918590;29;20604;-83
2022/07/08 00:20:58;;;;;;;12.03;2.60;;;;;;;15.79;78.10;102519.69;4902170;29;20374;-82
2022/07/08 00:23:23;;;;;;;15.43;3.53;;;;;;;15.76;77.88;102524.75;4918571;29;20323;-81
2022/07/08 00:25:49;;;;;;;11.57;2.93;;;;;;;15.77;77.74;102518.75;4903910;29;20202;-82
2022/07/08 00:28:14;;;;;;;11.53;2.70;;;;;;;15.78;77.35;102523.06;4917714;29;20291;-82
2022/07/08 00:30:39;;;;;;;12.97;2.87;;;;;;;15.77;77.68;102534.25;4919270;29;20218;-82
2022/07/08 00:33:05;;;;;;;14.60;3.27;;;;;;;15.77;77.12;102529.97;4911969;29;20202;-81
2022/07/08 00:35:30;;;;;;;15.37;2.77;;;;;;;15.74;77.48;102539.34;4927568;29;20196;-81
2022/07/08 00:37:56;;;;;;;12.13;2.57;;;;;;;15.73;77.45;102537.59;4916898;29;20202;-82
2022/07/08 00:40:21;;;;;;;11.57;3.03;;;;;;;15.73;77.08;102532.41;4916004;29;20588;-82
2022/07/08 00:42:48;;;;;;;10.43;2.70;;;;;;;15.72;77.68;102538.44;4914791;29;20210;-82
2022/07/08 00:45:17;;;;;;;10.27;2.27;;;;;;;15.72;77.98;102548.75;4911817;29;20186;-81
2022/07/08 00:47:43;;;;;;;13.70;3.43;;;;;;;15.72;78.57;102549.66;4917354;29;20229;-84
2022/07/08 00:50:10;;;;;;;12.27;2.63;;;;;;;15.68;77.58;102549.50;4915839;29;20219;-83
2022/07/08 00:52:41;;;;;;;12.33;2.57;;;;;;;15.67;76.93;102550.34;4931911;29;20194;-82
2022/07/08 00:55:07;;;;;;;15.70;3.43;;;;;;;15.64;77.63;102553.72;4917521;29;20194;-82
2022/07/08 00:57:34;;;;;;;12.87;3.00;;;;;;;15.66;77.49;102554.63;4917028;29;20284;-83
2022/07/08 01:00:00;;;;;;;13.57;3.07;;;;;;;15.66;77.74;102551.19;4918146;29;20210;-82
2022/07/08 01:02:26;;;;;;;12.00;2.97;;;;;;;15.63;77.43;102553.69;4917278;29;20199;-82
2022/07/08 01:04:51;;;;;;;15.03;3.63;;;;;;;15.63;77.46;102556.28;4918339;29;20206;-83
2022/07/08 01:07:18;;;;;;;14.37;3.27;;;;;;;15.62;77.28;102565.75;4917316;29;20229;-83
2022/07/08 01:09:43;;;;;;;10.97;2.70;;;;;;;15.62;77.31;102560.56;4920453;29;20571;-84
2022/07/08 01:12:09;;;;;;;15.70;3.60;;;;;;;15.59;77.54;102563.06;4918698;29;20197;-84
2022/07/08 01:14:35;;;;;;;10.10;2.53;;;;;;;15.59;77.31;102559.59;4918818;29;20178;-84
2022/07/08 01:17:00;;;;;;;12.07;3.10;;;;;;;15.52;77.68;102553.41;4919227;29;20646;-82
2022/07/08 01:19:26;;;;;;;13.30;3.10;;;;;;;15.48;78.01;102555.88;4935757;23;20186;-71
2022/07/08 01:21:51;;;;;;;10.10;2.87;;;;;;;15.42;77.91;102554.00;4949696;28;20225;-71
2022/07/08 01:24:18;;;;;;;13.07;2.87;;;;;;;15.40;77.87;102553.09;4950615;28;20324;-71
2022/07/08 01:26:44;;;;;;;11.77;2.80;;;;;;;15.35;77.90;102556.34;4951147;28;20204;-71
2022/07/08 01:29:11;;;;;;;14.60;3.27;;;;;;;15.31;77.81;102557.06;4950454;28;20222;-71
2022/07/08 01:31:37;;;;;;;15.27;2.87;;;;;;;15.35;76.88;102559.84;4950794;28;20197;-71
2022/07/08 01:34:02;;;;;;;12.27;2.93;;;;;;;15.35;77.02;102559.84;4950609;28;20247;-70
2022/07/08 01:36:28;;;;;;;8.80;2.63;;;;;;;15.36;76.90;102558.09;4951020;29;20586;-71
2022/07/08 01:38:53;;;;;;;9.70;2.93;;;;;;;15.35;77.29;102564.09;4951082;29;20932;-70
2022/07/08 01:41:19;;;;;;;12.17;2.70;;;;;;;15.36;77.09;102566.75;4951040;28;20238;-71
2022/07/08 01:43:44;;;;;;;12.80;2.60;;;;;;;15.33;77.38;102558.84;4951205;28;20216;-71
2022/07/08 01:46:10;;;;;;;12.53;3.37;;;;;;;15.33;77.49;102558.84;4949334;29;20717;-71
2022/07/08 01:48:35;;;;;;;11.80;2.63;;;;;;;15.32;78.01;102566.56;4951144;29;20205;-71
2022/07/08 01:51:01;;;;;;;11.20;2.83;;;;;;;15.31;77.88;102564.81;4981583;28;20193;-71
2022/07/08 01:53:26;;;;;;;10.23;2.70;;;;;;;15.32;77.84;102561.41;4949573;29;20288;-71
2022/07/08 01:55:52;;;;;;;13.23;3.07;;;;;;;15.33;78.15;102573.50;4951042;28;20233;-71
2022/07/08 01:58:17;;;;;;;10.50;2.57;;;;;;;15.30;78.10;102568.25;4948941;29;20577;-71
2022/07/08 02:00:43;;;;;;;8.70;2.47;;;;;;;15.28;78.24;102570.78;4950866;29;20689;-71
2022/07/08 02:03:08;;;;;;;13.00;2.87;;;;;;;15.27;78.61;102562.97;4950107;28;20231;-71
2022/07/08 02:05:34;;;;;;;10.07;2.47;;;;;;;15.28;77.91;102565.59;4952864;28;20216;-71
2022/07/08 02:08:03;;;;;;;11.57;2.37;;;;;;;15.26;78.54;102567.28;4953675;28;20336;-71
2022/07/08 02:10:28;;;;;;;8.40;2.43;;;;;;;15.27;77.80;102570.72;4985497;28;20534;-70
2022/07/08 02:12:57;;;;;;;8.60;2.77;;;;;;;15.27;77.83;102573.31;4954144;29;20188;-70
2022/07/08 02:15:22;;;;;;;16.50;2.80;;;;;;;15.26;77.41;102576.72;4952857;28;20235;-71
2022/07/08 02:17:48;;;;;;;10.03;2.57;;;;;;;15.22;77.23;102569.72;4953757;29;20185;-71
2022/07/08 02:20:13;;;;;;;10.10;2.20;;;;;;;15.22;77.16;102569.72;4953712;29;20208;-71
2022/07/08 02:22:40;;;;;;;10.80;2.67;;;;;;;15.22;77.09;102565.44;4954279;28;20200;-70
2022/07/08 02:25:07;;;;;;;10.00;2.23;;;;;;;15.18;75.62;102563.59;4953531;29;20209;-70
2022/07/08 02:27:32;;;;;;;7.40;2.50;;;;;;;15.20;76.29;102567.09;4953732;28;20209;-70
2022/07/08 02:29:57;;;;;;;10.03;2.40;;;;;;;15.21;75.94;102560.22;4953056;29;20201;-70
2022/07/08 02:32:23;;;;;;;8.73;2.20;;;;;;;15.19;76.60;102562.75;4953832;29;20201;-71
2022/07/08 02:34:49;;;;;;;7.30;2.30;;;;;;;15.20;75.94;102561.94;4954167;28;20205;-70
2022/07/08 02:37:14;;;;;;;9.60;2.50;;;;;;;15.20;74.17;102556.75;4953326;28;20281;-70
2022/07/08 02:39:41;;;;;;;6.47;1.80;;;;;;;15.20;74.32;102566.22;4953748;28;20185;-70
2022/07/08 02:42:08;;;;;;;13.23;2.67;;;;;;;15.20;74.20;102571.41;4953300;29;20195;-70
2022/07/08 02:44:35;;;;;;;7.20;1.93;;;;;;;15.21;74.76;102578.31;4953768;28;20713;-70
2022/07/08 02:47:00;;;;;;;9.63;2.33;;;;;;;15.20;74.16;102586.88;4952846;28;20770;-70
2022/07/08 02:49:26;;;;;;;10.47;2.67;;;;;;;15.17;74.97;102582.50;4953131;28;20280;-70
2022/07/08 02:51:51;;;;;;;10.00;2.00;;;;;;;15.14;74.59;102590.16;4953620;29;20197;-70
2022/07/08 02:54:17;;;;;;;5.90;1.77;;;;;;;15.12;74.20;102586.66;4953053;28;20209;-70
2022/07/08 02:56:42;;;;;;;11.87;2.60;;;;;;;15.13;74.98;102592.69;4953449;29;20834;-70
2022/07/08 02:59:07;;;;;;;10.50;2.87;;;;;;;15.14;74.26;102586.72;4951066;28;20947;-70
2022/07/08 03:01:33;;;;;;;8.57;2.20;;;;;;;15.14;74.38;102595.31;4949361;29;20613;-70
2022/07/08 03:03:58;;;;;;;5.80;1.80;;;;;;;15.14;74.34;102592.72;4951875;28;20223;-70
2022/07/08 03:06:24;;;;;;;8.17;1.90;;;;;;;15.14;74.18;102597.91;4953304;28;20253;-70
2022/07/08 03:08:49;;;;;;;8.93;2.47;;;;;;;15.13;73.65;102610.75;4952866;29;20296;-70
2022/07/08 03:11:15;;;;;;;10.43;2.20;;;;;;;15.16;73.82;102604.00;4953111;28;20678;-70
2022/07/08 03:13:40;;;;;;;12.60;2.67;;;;;;;15.14;74.11;102597.91;4952956;29;20189;-70
2022/07/08 03:16:06;;;;;;;10.97;2.73;;;;;;;15.16;73.35;102610.84;4952399;28;20187;-70
2022/07/08 03:18:32;;;;;;;10.63;2.43;;;;;;;15.14;72.87;102609.94;4983497;28;20216;-70
2022/07/08 03:20:58;;;;;;;13.87;2.23;;;;;;;15.14;72.29;102604.78;4952718;28;20201;-70
2022/07/08 03:23:23;;;;;;;8.03;2.37;;;;;;;15.14;71.58;102605.63;4952945;28;20252;-70
2022/07/08 03:25:49;;;;;;;11.80;2.93;;;;;;;15.17;72.17;102604.84;4952198;28;20224;-70
2022/07/08 03:28:15;;;;;;;10.20;2.10;;;;;;;15.18;71.23;102598.84;4952351;28;20244;-70
2022/07/08 03:30:40;;;;;;;9.70;2.33;;;;;;;15.20;71.41;102608.38;4951805;29;20205;-70
2022/07/08 03:33:06;;;;;;;8.20;2.50;;;;;;;15.21;72.46;102602.41;4951975;29;20184;-70
2022/07/08 03:35:32;;;;;;;9.37;2.30;;;;;;;15.19;72.28;102600.63;4952923;28;20622;-70
2022/07/08 03:37:57;;;;;;;8.00;2.03;;;;;;;15.21;72.83;102607.59;4951946;28;20977;-70
2022/07/08 03:43:07;;;;;;;8.83;2.03;;;;;;;15.22;72.94;102611.00;4952379;29;20204;-70
2022/07/08 03:45:32;;;;;;;14.03;2.67;;;;;;;15.20;72.84;102610.13;4952585;28;20255;-70
2022/07/08 03:48:00;;;;;;;8.87;1.80;;;;;;;15.21;72.60;102615.31;4952139;29;20217;-70
2022/07/08 03:50:26;;;;;;;8.47;2.30;;;;;;;15.21;72.62;102614.44;4952105;29;20798;-70
2022/07/08 03:52:52;;;;;;;7.37;2.10;;;;;;;15.25;72.62;102612.00;4952100;28;20256;-70
2022/07/08 03:55:17;;;;;;;9.47;1.83;;;;;;;15.24;72.44;102617.13;4947440;28;20734;-70
2022/07/08 03:57:42;;;;;;;7.60;2.07;;;;;;;15.24;72.63;102615.38;4964313;28;20564;-70
2022/07/08 04:00:09;;;;;;;8.63;2.20;;;;;;;15.24;72.66;102615.38;4949190;29;20193;-70
2022/07/08 04:02:35;;;;;;;7.80;2.10;;;;;;;15.25;72.65;102622.31;4952542;28;20239;-70
2022/07/08 04:05:00;;;;;;;10.53;2.07;;;;;;;15.25;73.26;102621.44;4952533;28;20298;-70
2022/07/08 04:07:26;;;;;;;8.67;2.20;;;;;;;15.22;73.46;102629.09;4951544;28;20312;-70
2022/07/08 04:09:52;;;;;;;10.93;2.80;;;;;;;15.26;73.09;102629.22;4952527;28;20190;-70
2022/07/08 04:12:17;;;;;;;9.37;2.30;;;;;;;15.28;73.58;102635.31;4951990;28;20658;-70
2022/07/08 04:14:42;;;;;;;6.30;1.93;;;;;;;15.31;73.62;102631.94;4952221;28;20271;-70
2022/07/08 04:17:08;;;;;;;8.70;1.53;;;;;;;15.30;73.76;102638.81;4951619;28;20271;-70
2022/07/08 04:19:33;;;;;;;10.03;2.50;;;;;;;15.27;73.60;102638.72;4952123;28;20189;-70
2022/07/08 04:21:59;;;;;;;8.40;2.23;;;;;;;15.28;73.96;102637.88;4952275;28;20208;-70
2022/07/08 04:24:24;;;;;;;10.23;2.10;;;;;;;15.34;73.92;102651.00;4951213;28;20220;-70
2022/07/08 04:26:50;;;;;;;12.40;2.60;;;;;;;15.37;73.98;102643.34;4950183;29;20189;-70
2022/07/08 04:29:15;;;;;;;9.93;2.07;;;;;;;15.45;73.84;102652.19;4951307;28;20208;-70
2022/07/08 04:31:40;;;;;;;9.50;2.10;;;;;;;15.54;74.25;102656.72;4952012;29;20283;-70
2022/07/08 04:34:06;;;;;;;10.40;2.60;;;;;;;15.63;74.00;102654.41;4951522;28;20208;-70
2022/07/08 04:36:31;;;;;;;8.23;2.23;;;;;;;15.62;74.61;102650.09;4951262;28;20694;-70
2022/07/08 04:38:57;;;;;;;13.73;2.97;;;;;;;15.63;73.38;102659.56;4950980;29;20196;-70
2022/07/08 04:41:22;;;;;;;7.67;2.30;;;;;;;15.75;73.95;102657.34;4951464;29;20197;-70
2022/07/08 04:43:48;;;;;;;7.63;2.13;;;;;;;15.79;73.08;102659.19;4950969;28;20248;-70
2022/07/08 04:46:13;;;;;;;8.03;2.10;;;;;;;15.76;74.58;102672.00;4951467;28;20192;-70
2022/07/08 04:48:41;;;;;;;6.17;2.00;;;;;;;15.82;73.69;102670.47;4951542;28;20344;-71
2022/07/08 04:51:06;;;;;;;9.37;2.57;;;;;;;15.79;73.12;102672.09;4951252;28;20220;-70
2022/07/08 04:53:32;;;;;;;7.50;1.73;;;;;;;15.84;72.61;102666.19;4951892;28;20184;-70
2022/07/08 04:55:57;;;;;;;6.27;2.43;;;;;;;15.97;72.65;102670.03;4951597;28;20577;-70
2022/07/08 04:58:23;;;;;;;9.80;2.00;;;;;;;16.03;72.85;102671.03;4950943;28;20224;-70
2022/07/08 05:00:48;;;;;;;7.43;2.13;;;;;;;16.17;72.64;102666.25;4951937;29;20189;-70
2022/07/08 05:03:14;;;;;;;8.53;2.00;;;;;;;16.31;72.13;102670.91;4951187;29;20193;-70
2022/07/08 05:05:39;;;;;;;6.60;2.20;;;;;;;16.37;71.26;102668.50;4951644;28;20824;-70
2022/07/08 05:08:05;;;;;;;7.90;2.13;;;;;;;16.61;70.94;102668.25;4981859;28;20222;-70
2022/07/08 05:10:31;;;;;;;13.40;2.40;;;;;;;16.77;70.45;102667.78;4951447;28;20188;-70
2022/07/08 05:12:57;;;;;;;12.10;2.57;;;;;;;16.87;70.16;102662.88;4951803;28;20189;-70
2022/07/08 05:15:23;;;;;;;12.60;2.23;;;;;;;16.94;69.87;102656.97;4982654;28;20587;-70
2022/07/08 05:17:51;;;;;;;8.77;2.33;;;;;;;17.10;69.65;102661.66;4951769;28;20185;-71
2022/07/08 05:20:16;;;;;;;8.37;2.20;;;;;;;17.10;70.21;102660.78;4950724;28;20280;-71
2022/07/08 05:22:42;;;;;;;9.13;2.43;;;;;;;17.24;69.72;102667.13;4951867;28;20630;-70
2022/07/08 05:25:08;;;;;;;10.30;2.10;;;;;;;17.37;70.05;102672.59;4951104;29;20308;-70
2022/07/08 05:27:35;;;;;;;12.23;2.40;;;;;;;17.36;69.56;102676.03;4951360;28;20227;-70
2022/07/08 05:30:01;;;;;;;9.53;1.83;;;;;;;17.29;70.01;102668.09;4982119;28;20246;-71
2022/07/08 05:32:26;;;;;;;7.13;1.87;;;;;;;17.30;70.40;102668.13;4951175;28;20193;-70
2022/07/08 05:34:52;;;;;;;12.50;2.83;;;;;;;17.48;70.57;102668.56;4951221;28;20236;-71
2022/07/08 05:37:17;;;;;;;10.53;2.10;;;;;;;17.42;71.23;102670.16;4950663;28;20240;-70
2022/07/08 05:39:43;;;;;;;8.57;2.50;;;;;;;17.28;71.71;102666.34;4951744;28;20204;-70
2022/07/08 05:42:10;;;;;;;9.33;2.13;;;;;;;17.47;70.62;102665.94;4954458;28;20221;-70
2022/07/08 05:44:37;;;;;;;9.47;2.20;;;;;;;17.57;70.38;102673.94;4955055;28;20209;-71
2022/07/08 05:47:04;;;;;;;11.63;2.27;;;;;;;17.79;69.11;102670.03;4954302;28;20633;-70
2022/07/08 05:49:30;;;;;;;7.77;1.90;;;;;;;17.58;67.91;102667.00;4946076;28;20193;-70
2022/07/08 05:51:56;;;;;;;10.27;2.13;;;;;;;17.41;68.63;102668.41;4955141;28;20549;-70
2022/07/08 05:54:21;;;;;;;10.27;2.20;;;;;;;17.39;69.18;102662.25;4954480;28;20201;-70
2022/07/08 05:56:47;;;;;;;5.70;2.17;;;;;;;17.29;69.03;102655.16;4954348;29;20216;-70
2022/07/08 05:59:12;;;;;;;6.37;1.90;;;;;;;17.31;69.05;102666.44;4943399;29;20188;-70
2022/07/08 06:01:37;;;;;;;9.43;2.33;;;;;;;17.29;69.67;102663.81;4954924;29;20276;-69
2022/07/08 06:04:03;;;;;;;8.50;2.27;;;;;;;17.27;69.92;102665.47;4954285;28;20205;-70
2022/07/08 06:06:29;;;;;;;6.63;1.90;;;;;;;17.41;68.83;102663.22;4956125;28;20201;-69
2022/07/08 06:08:54;;;;;;;11.03;1.83;;;;;;;17.76;68.67;102667.38;4923096;29;20209;-70
2022/07/08 06:11:20;;;;;;;5.60;1.90;;;;;;;18.08;66.46;102669.75;4952338;29;20565;-73
2022/07/08 06:13:51;;;;;;;8.47;2.10;;;;;;;18.24;65.44;102668.28;4986227;28;20610;-73
2022/07/08 06:16:16;;;;;;;6.43;1.70;;;;;;;18.56;66.33;102672.34;4986194;28;20223;-72
2022/07/08 06:18:42;;;;;;;12.33;2.40;;;;;;;18.77;64.83;102683.03;4954323;29;20558;-72
2022/07/08 06:21:07;;;;;;;10.27;2.07;;;;;;;18.55;63.70;102680.94;4953799;28;20197;-71
2022/07/08 06:23:34;;;;;;;5.33;1.90;;;;;;;18.49;65.03;102696.44;4954528;29;20275;-71
2022/07/08 06:26:00;;;;;;;9.40;2.23;;;;;;;18.58;64.90;102701.78;4954248;28;20216;-72
2022/07/08 06:28:26;;;;;;;8.47;2.07;;;;;;;18.27;65.61;102695.16;4984501;28;20208;-71
2022/07/08 06:30:51;;;;;;;6.30;1.93;;;;;;;18.04;66.83;102700.75;4964072;28;20188;-71
2022/07/08 06:33:17;;;;;;;9.23;1.90;;;;;;;18.06;66.76;102694.75;4972880;28;20189;-71
2022/07/08 06:35:42;;;;;;;9.50;2.20;;;;;;;18.04;67.54;102696.44;4973345;28;20240;-71
2022/07/08 06:38:08;;;;;;;6.67;1.80;;;;;;;18.00;67.23;102701.56;4967995;28;20196;-72
2022/07/08 06:40:34;;;;;;;8.17;1.90;;;;;;;17.95;67.21;102708.34;4985068;28;20197;-71
2022/07/08 06:42:59;;;;;;;10.50;2.03;;;;;;;18.20;66.64;102701.06;4953808;29;20193;-71
2022/07/08 06:45:25;;;;;;;10.30;2.63;;;;;;;18.03;65.88;102707.69;4953533;28;20221;-72
2022/07/08 06:47:50;;;;;;;10.07;2.33;;;;;;;17.93;66.37;102700.56;4954008;29;20241;-71
2022/07/08 06:50:16;;;;;;;7.07;2.20;;;;;;;18.07;66.43;102695.63;4953360;29;20664;-71
2022/07/08 06:52:41;;;;;;;13.07;2.13;;;;;;;18.49;64.72;102693.84;4983515;28;20189;-72
2022/07/08 06:55:07;;;;;;;9.20;2.43;;;;;;;18.78;64.26;102696.06;4952396;28;20238;-72
2022/07/08 06:57:32;;;;;;;9.60;2.23;;;;;;;18.83;63.67;102697.00;4952978;28;20256;-71
2022/07/08 06:59:58;;;;;;;8.87;1.90;;;;;;;18.63;63.51;102693.22;4953136;29;20276;-71
2022/07/08 07:02:23;;;;;;;11.70;2.43;;;;;;;18.62;63.31;102695.78;4952522;29;20197;-71
2022/07/08 07:04:49;;;;;;;7.20;2.07;;;;;;;19.10;62.79;102701.72;4984437;28;20215;-71
2022/07/08 07:07:15;;;;;;;6.67;1.80;;;;;;;19.43;60.41;102695.31;4943718;29;21007;-71
2022/07/08 07:09:40;;;;;;;7.40;2.13;;;;;;;19.73;60.45;102706.09;4938536;29;20205;-71
2022/07/08 07:12:06;;;;;;;7.03;1.83;;;;;;;19.65;60.73;102702.53;4953456;29;20201;-70
2022/07/08 07:14:33;;;;;;;8.37;2.13;;;;;;;19.37;60.44;102702.13;4952942;28;20267;-71
2022/07/08 07:16:59;;;;;;;7.70;2.00;;;;;;;19.12;59.99;102705.22;4953227;28;20197;-70
2022/07/08 07:19:24;;;;;;;10.33;2.37;;;;;;;19.51;58.93;102703.19;4946574;29;20777;-71
2022/07/08 07:21:50;;;;;;;5.90;2.13;;;;;;;19.39;59.70;102708.25;4952637;29;20283;-70
2022/07/08 07:24:15;;;;;;;7.73;2.10;;;;;;;19.96;58.91;102711.53;4951916;28;20204;-71
2022/07/08 07:26:41;;;;;;;6.97;1.63;;;;;;;20.32;58.45;102714.56;4983944;28;20193;-70
2022/07/08 07:29:07;;;;;;;11.33;2.33;;;;;;;20.70;58.94;102719.25;4949281;28;20209;-71
2022/07/08 07:31:33;;;;;;;7.00;1.83;;;;;;;20.85;56.75;102721.09;4934822;28;20671;-72
2022/07/08 07:33:58;;;;;;;6.57;1.80;;;;;;;21.00;56.19;102719.50;4950996;28;20729;-71
2022/07/08 07:36:24;;;;;;;9.20;2.13;;;;;;;20.86;56.46;102717.66;4951675;29;20185;-71
2022/07/08 07:38:50;;;;;;;6.23;1.67;;;;;;;20.64;55.82;102719.19;4951301;28;20705;-71
2022/07/08 07:41:15;;;;;;;7.17;2.00;;;;;;;20.78;56.66;102721.91;4950559;28;20665;-71
2022/07/08 07:43:41;;;;;;;10.73;2.63;;;;;;;20.76;56.18;102726.22;4952324;29;20189;-72
2022/07/08 07:46:06;;;;;;;7.07;2.10;;;;;;;20.57;55.94;102733.03;4959249;28;20293;-72
2022/07/08 07:48:31;;;;;;;6.93;2.00;;;;;;;20.59;55.97;102726.09;4951345;29;20236;-71
2022/07/08 07:50:57;;;;;;;6.87;2.20;;;;;;;20.66;56.77;102737.44;4952233;28;20203;-72
2022/07/08 07:53:23;;;;;;;7.13;1.60;;;;;;;20.39;57.10;102738.06;4947819;28;20288;-72
2022/07/08 07:55:49;;;;;;;9.00;2.07;;;;;;;20.11;58.45;102743.84;4952045;28;20212;-72
2022/07/08 07:58:15;;;;;;;5.60;1.60;;;;;;;19.83;59.65;102743.47;4951654;29;20244;-72
2022/07/08 08:00:40;;;;;;;6.93;1.50;;;;;;;19.64;60.49;102738.91;4953124;28;20247;-72
2022/07/08 08:03:06;;;;;;;6.93;2.10;;;;;;;19.63;61.59;102739.75;4970697;28;20184;-72
2022/07/08 08:05:31;;;;;;;9.60;2.00;;;;;;;19.56;61.70;102754.41;4951492;28;20219;-72
2022/07/08 08:07:57;;;;;;;7.10;2.20;;;;;;;19.44;62.24;102755.97;4950218;29;20225;-72
2022/07/08 08:10:22;;;;;;;8.57;2.30;;;;;;;19.38;63.22;102761.03;4951332;29;20662;-71
2022/07/08 08:12:48;;;;;;;9.47;2.27;;;;;;;19.34;63.44;102764.47;4951678;29;20185;-71
2022/07/08 08:15:13;;;;;;;7.43;1.90;;;;;;;19.04;63.67;102761.38;4982341;28;20648;-72
2022/07/08 08:17:40;;;;;;;3.50;1.87;;;;;;;18.94;65.34;102767.28;4950912;29;20276;-71
2022/07/08 08:20:08;;;;;;;6.83;1.77;;;;;;;18.88;65.44;102770.63;4949810;29;20228;-72
2022/07/08 08:22:35;;;;;;;3.93;1.50;;;;;;;18.84;66.02;102778.38;4950993;28;20279;-70
2022/07/08 08:25:00;;;;;;;6.27;1.90;;;;;;;18.90;66.30;102781.06;4960039;28;20201;-71
2022/07/08 08:27:26;;;;;;;12.20;2.37;;;;;;;18.70;66.27;102777.25;4951570;29;20588;-71
2022/07/08 08:29:52;;;;;;;8.67;2.60;;;;;;;18.68;66.72;102773.75;4937201;28;20248;-71
2022/07/08 08:32:17;;;;;;;8.03;2.07;;;;;;;18.61;67.28;102777.09;4951471;28;20256;-71
2022/07/08 08:34:43;;;;;;;9.73;2.20;;;;;;;18.44;68.14;102779.41;4950875;28;20299;-71
2022/07/08 08:37:08;;;;;;;7.77;2.77;;;;;;;18.49;68.67;102782.06;4951490;29;20289;-71
2022/07/08 08:39:34;;;;;;;8.27;2.30;;;;;;;18.54;69.49;102785.59;4951277;29;20204;-71
2022/07/08 08:42:00;;;;;;;7.40;2.30;;;;;;;18.48;70.22;102791.59;4981830;28;20185;-71
2022/07/08 08:44:26;;;;;;;8.07;2.67;;;;;;;18.45;71.45;102795.81;4946522;28;20204;-71
2022/07/08 08:46:53;;;;;;;10.40;2.50;;;;;;;18.30;71.53;102798.09;4950435;28;20185;-71
2022/07/08 08:49:22;;;;;;;11.70;3.13;;;;;;;18.22;72.88;102797.06;4950781;28;20288;-71
2022/07/08 08:51:50;;;;;;;9.30;2.43;;;;;;;18.35;73.16;102801.69;4982140;28;20267;-71
2022/07/08 08:54:18;;;;;;;8.60;2.37;;;;;;;18.24;74.36;102805.78;4936030;28;20237;-71
2022/07/08 08:56:47;;;;;;;11.13;3.70;;;;;;;18.05;75.58;102804.50;4950743;29;20189;-71
2022/07/08 08:59:14;;;;;;;8.17;2.60;;;;;;;17.76;78.21;102807.34;4981145;28;20332;-71
2022/07/08 09:01:40;;;;;;;8.03;2.20;;;;;;;17.73;78.90;102807.28;4950634;28;20760;-71
2022/07/08 09:04:10;;;;;;;13.07;3.43;;;;;;;17.62;79.92;102807.03;4950690;28;20220;-71
2022/07/08 09:06:39;;;;;;;12.63;3.37;;;;;;;17.76;80.19;102808.22;4950205;28;20192;-72
2022/07/08 09:09:05;;;;;;;11.23;3.53;;;;;;;17.99;80.72;102806.09;4981979;28;20216;-72
2022/07/08 09:11:32;;;;;;;11.93;4.40;;;;;;;18.09;80.42;102801.13;4949516;28;20193;-71
2022/07/08 09:14:16;;;;;;;10.13;3.87;;;;;;;18.53;79.29;102799.44;4981260;28;20197;-70
2022/07/08 09:17:16;;;;;;;9.27;3.13;;;;;;;19.14;77.57;102790.13;4981818;28;20550;-72
2022/07/08 09:19:42;;;;;;;10.63;3.40;;;;;;;18.97;76.82;102798.50;4981992;28;20217;-72
2022/07/08 09:22:09;;;;;;;10.30;3.20;;;;;;;18.95;77.38;102795.88;4950339;28;20189;-72
2022/07/08 09:24:36;;;;;;;11.50;4.10;;;;;;;18.68;77.20;102798.00;4949993;28;20287;-71
2022/07/08 09:27:03;;;;;;;11.77;3.80;;;;;;;18.41;78.68;102802.69;4950857;28;20838;-72
2022/07/08 09:29:29;;;;;;;11.77;3.37;;;;;;;18.49;78.83;102798.50;4948267;28;20217;-71
2022/07/08 09:32:09;;;;;;;8.93;4.07;;;;;;;18.59;78.73;102796.94;4963933;28;20296;-71
2022/07/08 09:34:36;;;;;;;5.77;2.57;;;;;;;18.50;79.25;102799.38;4950553;28;20205;-72
2022/07/08 09:37:16;;;;;;;7.57;3.20;;;;;;;18.55;78.81;102792.53;4950159;29;20192;-71
2022/07/08 09:39:45;;;;;;;10.40;2.80;;;;;;;18.64;78.45;102793.59;4978903;28;20196;-70
2022/07/08 09:42:16;;;;;;;7.27;2.07;;;;;;;18.55;78.01;102795.13;4950134;29;20276;-71
2022/07/08 09:44:42;;;;;;;7.73;2.33;;;;;;;18.48;78.22;102789.00;4950611;28;20208;-71
2022/07/08 09:47:15;;;;;;;8.87;2.93;;;;;;;18.44;77.99;102789.78;4950985;28;20922;-71
2022/07/08 09:49:45;;;;;;;7.80;2.40;;;;;;;18.44;78.56;102782.00;4966871;28;20208;-71
2022/07/08 09:52:19;;;;;;;6.77;2.63;;;;;;;18.88;77.82;102778.44;4969923;28;20176;-71
2022/07/08 09:54:44;;;;;;;10.73;2.50;;;;;;;19.16;77.22;102779.75;4970113;28;20221;-71
2022/07/08 09:57:11;;;;;;;9.60;2.67;;;;;;;19.39;76.02;102774.06;4969788;28;20243;-71
2022/07/08 09:59:38;;;;;;;8.10;2.67;;;;;;;19.22;76.60;102772.06;4968832;28;20202;-71
2022/07/08 10:02:05;;;;;;;7.30;2.50;;;;;;;19.39;75.73;102768.03;4969972;28;20196;-72
2022/07/08 10:04:30;;;;;;;4.93;1.83;;;;;;;19.74;74.10;102761.56;4970066;28;20232;-71
2022/07/08 10:06:58;;;;;;;5.97;2.00;;;;;;;20.16;72.79;102764.69;4951075;29;20177;-71
2022/07/08 10:09:25;;;;;;;5.27;1.60;;;;;;;19.82;72.81;102766.00;4965050;28;20216;-72
2022/07/08 10:11:51;;;;;;;8.17;1.90;;;;;;;19.40;74.79;102774.97;4951014;28;20565;-70
2022/07/08 10:14:18;;;;;;;3.90;1.60;;;;;;;19.26;75.46;102764.34;4950581;28;20197;-70
2022/07/08 10:16:46;;;;;;;7.00;1.77;;;;;;;19.03;75.80;102770.88;4951141;28;20193;-70
2022/07/08 10:19:19;;;;;;;4.43;1.60;;;;;;;18.93;75.90;102769.00;4948807;29;20215;-70
2022/07/08 10:21:50;;;;;;;4.03;1.70;;;;;;;18.80;76.88;102766.19;4950660;29;20201;-70
2022/07/08 10:24:22;;;;;;;2.87;1.43;;;;;;;18.76;77.12;102761.78;4951181;28;20234;-70
2022/07/08 10:26:48;;;;;;;4.63;1.30;;;;;;;19.10;75.90;102766.66;4952412;28;20689;-71
2022/07/08 10:29:14;;;;;;;4.13;1.10;;;;;;;19.13;75.96;102764.13;4953761;28;20276;-71
2022/07/08 10:31:50;;;;;;;3.20;1.60;;;;;;;19.03;76.39;102762.22;4940033;28;20719;-71
2022/07/08 10:34:35;;;;;;;3.13;1.43;;;;;;;19.23;75.86;102766.03;4954086;28;20208;-71
2022/07/08 10:37:03;;;;;;;2.47;0.93;;;;;;;19.36;75.94;102763.66;4953598;28;20189;-71
2022/07/08 10:39:37;;;;;;;2.73;1.27;;;;;;;19.34;76.22;102767.94;4953562;28;20185;-71
2022/07/08 10:42:07;;;;;;;1.70;1.00;;;;;;;19.50;76.34;102758.63;4953708;28;20177;-70
2022/07/08 10:44:48;;;;;;;2.47;1.10;;;;;;;19.65;75.72;102761.44;4953700;28;20216;-71
2022/07/08 10:47:25;;;;;;;1.50;0.93;;;;;;;19.48;75.31;102761.22;4954137;28;21145;-71
2022/07/08 10:49:51;;;;;;;2.43;0.83;;;;;;;19.33;76.23;102761.00;4968326;28;20252;-72
2022/07/08 10:52:17;;;;;;;2.70;0.93;;;;;;;19.40;76.69;102770.63;4953997;28;20181;-70
2022/07/08 10:54:43;;;;;;;2.67;1.00;;;;;;;19.36;75.89;102766.25;4953410;28;20690;-71
2022/07/08 10:57:28;;;;;;;2.00;1.10;;;;;;;19.18;76.28;102771.13;4962309;28;20200;-71
2022/07/08 11:00:08;;;;;;;2.50;0.70;;;;;;;19.18;76.96;102765.06;4972475;28;20200;-71
2022/07/08 11:02:46;;;;;;;2.07;0.70;;;;;;;19.49;76.01;102765.53;4963240;28;20180;-71
2022/07/08 11:05:35;;;;;;;2.23;1.00;;;;;;;19.53;75.71;102763.88;4960816;28;20215;-71
2022/07/08 11:08:19;;;;;;;1.10;0.80;;;;;;;19.63;75.43;102765.75;4934741;29;20209;-70
2022/07/08 11:10:46;;;;;;;0.70;0.60;;;;;;;19.52;74.63;102765.59;4953004;29;20189;-71
2022/07/08 11:13:11;;;;;;;1.80;1.07;;;;;;;19.81;75.04;102776.41;4952658;28;20178;-72
2022/07/08 11:15:37;;;;;;;1.40;1.00;;;;;;;19.76;75.20;102771.13;4952958;28;20744;-72
2022/07/08 11:18:03;;;;;;;1.87;0.80;;;;;;;19.60;75.71;102770.91;4952249;28;20196;-72
2022/07/08 11:20:33;;;;;;;1.53;0.80;;;;;;;20.39;72.93;102766.69;4951770;29;20197;-71
2022/07/08 11:23:03;;;;;;;1.60;0.90;;;;;;;20.72;72.08;102763.50;4950135;29;20585;-71